sensor_id;sensor_type;location;lat;lon;timestamp;temperature;humidity
66140;DHT22;52945;51.908;8.364;2024-03-02T00:02:19;9.60;63.50
66140;DHT22;52945;51.908;8.364;2024-03-02T00:05:21;9.50;63.80
66140;DHT22;52945;51.908;8.364;2024-03-02T00:08:25;9.50;63.90
66140;DHT22;52945;51.908;8.364;2024-03-02T00:11:26;9.50;63.80
66140;DHT22;52945;51.908;8.364;2024-03-02T00:14:30;9.50;64.00
66140;DHT22;52945;51.908;8.364;2024-03-02T00:17:31;9.50;64.00
66140;DHT22;52945;51.908;8.364;2024-03-02T00:20:31;9.50;64.10
66140;DHT22;52945;51.908;8.364;2024-03-02T00:23:33;9.50;64.20
66140;DHT22;52945;51.908;8.364;2024-03-02T00:26:35;9.50;64.40
66140;DHT22;52945;51.908;8.364;2024-03-02T00:29:35;9.40;64.70
66140;DHT22;52945;51.908;8.364;2024-03-02T00:32:36;9.40;64.90
66140;DHT22;52945;51.908;8.364;2024-03-02T00:35:37;9.40;64.90
66140;DHT22;52945;51.908;8.364;2024-03-02T00:38:48;9.40;65.10
66140;DHT22;52945;51.908;8.364;2024-03-02T00:41:49;9.40;65.30
66140;DHT22;52945;51.908;8.364;2024-03-02T00:44:50;9.40;65.40
66140;DHT22;52945;51.908;8.364;2024-03-02T00:47:53;9.30;65.50
66140;DHT22;52945;51.908;8.364;2024-03-02T00:50:54;9.40;65.60
66140;DHT22;52945;51.908;8.364;2024-03-02T00:53:58;9.30;65.60
66140;DHT22;52945;51.908;8.364;2024-03-02T00:56:58;9.40;65.70
66140;DHT22;52945;51.908;8.364;2024-03-02T01:00:00;9.40;65.80
66140;DHT22;52945;51.908;8.364;2024-03-02T01:03:00;9.30;65.90
66140;DHT22;52945;51.908;8.364;2024-03-02T01:06:01;9.30;65.90
66140;DHT22;52945;51.908;8.364;2024-03-02T01:09:02;9.30;65.80
66140;DHT22;52945;51.908;8.364;2024-03-02T01:12:03;9.30;65.90
66140;DHT22;52945;51.908;8.364;2024-03-02T01:15:05;9.30;65.70
66140;DHT22;52945;51.908;8.364;2024-03-02T01:18:08;9.30;65.80
66140;DHT22;52945;51.908;8.364;2024-03-02T01:21:10;9.30;65.80
66140;DHT22;52945;51.908;8.364;2024-03-02T01:24:10;9.30;65.90
66140;DHT22;52945;51.908;8.364;2024-03-02T01:27:11;9.30;66.10
66140;DHT22;52945;51.908;8.364;2024-03-02T01:30:11;9.30;66.10
66140;DHT22;52945;51.908;8.364;2024-03-02T01:33:12;9.20;66.10
66140;DHT22;52945;51.908;8.364;2024-03-02T01:36:12;9.30;66.30
66140;DHT22;52945;51.908;8.364;2024-03-02T01:39:13;9.20;66.20
66140;DHT22;52945;51.908;8.364;2024-03-02T01:42:14;9.30;66.20
66140;DHT22;52945;51.908;8.364;2024-03-02T01:45:15;9.20;66.40
66140;DHT22;52945;51.908;8.364;2024-03-02T01:48:15;9.20;66.50
66140;DHT22;52945;51.908;8.364;2024-03-02T01:51:16;9.20;66.50
66140;DHT22;52945;51.908;8.364;2024-03-02T01:54:17;9.20;66.50
66140;DHT22;52945;51.908;8.364;2024-03-02T01:57:18;9.20;66.40
66140;DHT22;52945;51.908;8.364;2024-03-02T02:00:19;9.20;66.30
66140;DHT22;52945;51.908;8.364;2024-03-02T02:03:20;9.20;66.50
66140;DHT22;52945;51.908;8.364;2024-03-02T02:06:21;9.20;66.50
66140;DHT22;52945;51.908;8.364;2024-03-02T02:09:22;9.20;66.40
66140;DHT22;52945;51.908;8.364;2024-03-02T02:12:22;9.20;66.30
66140;DHT22;52945;51.908;8.364;2024-03-02T02:15:24;9.20;66.40
66140;DHT22;52945;51.908;8.364;2024-03-02T02:18:25;9.20;66.70
66140;DHT22;52945;51.908;8.364;2024-03-02T02:21:25;9.10;66.80
66140;DHT22;52945;51.908;8.364;2024-03-02T02:24:27;9.10;66.90
66140;DHT22;52945;51.908;8.364;2024-03-02T02:27:28;9.10;66.90
66140;DHT22;52945;51.908;8.364;2024-03-02T02:30:30;9.10;67.00
66140;DHT22;52945;51.908;8.364;2024-03-02T02:33:31;9.10;67.00
66140;DHT22;52945;51.908;8.364;2024-03-02T02:36:32;9.10;67.10
66140;DHT22;52945;51.908;8.364;2024-03-02T02:39:33;9.10;67.20
66140;DHT22;52945;51.908;8.364;2024-03-02T02:42:34;9.00;67.10
66140;DHT22;52945;51.908;8.364;2024-03-02T02:45:35;9.00;67.20
66140;DHT22;52945;51.908;8.364;2024-03-02T02:48:35;9.00;67.30
66140;DHT22;52945;51.908;8.364;2024-03-02T02:51:36;8.90;67.30
66140;DHT22;52945;51.908;8.364;2024-03-02T02:54:37;8.90;67.40
66140;DHT22;52945;51.908;8.364;2024-03-02T02:57:42;8.90;67.60
66140;DHT22;52945;51.908;8.364;2024-03-02T03:00:43;8.90;67.80
66140;DHT22;52945;51.908;8.364;2024-03-02T03:03:44;8.80;67.90
66140;DHT22;52945;51.908;8.364;2024-03-02T03:06:45;8.90;67.60
66140;DHT22;52945;51.908;8.364;2024-03-02T03:09:46;8.90;67.80
66140;DHT22;52945;51.908;8.364;2024-03-02T03:12:47;8.90;67.70
66140;DHT22;52945;51.908;8.364;2024-03-02T03:15:48;8.80;68.00
66140;DHT22;52945;51.908;8.364;2024-03-02T03:18:48;8.80;68.00
66140;DHT22;52945;51.908;8.364;2024-03-02T03:21:51;8.80;67.90
66140;DHT22;52945;51.908;8.364;2024-03-02T03:24:53;8.90;67.80
66140;DHT22;52945;51.908;8.364;2024-03-02T03:27:53;8.80;67.70
66140;DHT22;52945;51.908;8.364;2024-03-02T03:30:54;8.90;67.80
66140;DHT22;52945;51.908;8.364;2024-03-02T03:33:54;8.90;67.80
66140;DHT22;52945;51.908;8.364;2024-03-02T03:36:55;8.90;67.50
66140;DHT22;52945;51.908;8.364;2024-03-02T03:39:55;8.90;67.70
66140;DHT22;52945;51.908;8.364;2024-03-02T03:42:56;8.90;67.50
66140;DHT22;52945;51.908;8.364;2024-03-02T03:45:57;8.80;67.80
66140;DHT22;52945;51.908;8.364;2024-03-02T03:48:57;8.90;67.90
66140;DHT22;52945;51.908;8.364;2024-03-02T03:51:58;8.80;67.90
66140;DHT22;52945;51.908;8.364;2024-03-02T03:54:59;8.70;68.10
66140;DHT22;52945;51.908;8.364;2024-03-02T03:58:00;8.80;68.20
66140;DHT22;52945;51.908;8.364;2024-03-02T04:01:01;8.70;68.40
66140;DHT22;52945;51.908;8.364;2024-03-02T04:04:01;8.70;68.50
66140;DHT22;52945;51.908;8.364;2024-03-02T04:07:03;8.70;68.60
66140;DHT22;52945;51.908;8.364;2024-03-02T04:10:05;8.70;68.90
66140;DHT22;52945;51.908;8.364;2024-03-02T04:13:08;8.70;68.70
66140;DHT22;52945;51.908;8.364;2024-03-02T04:16:08;8.70;68.60
66140;DHT22;52945;51.908;8.364;2024-03-02T04:19:09;8.70;68.80
66140;DHT22;52945;51.908;8.364;2024-03-02T04:22:09;8.70;68.70
66140;DHT22;52945;51.908;8.364;2024-03-02T04:25:10;8.70;68.60
66140;DHT22;52945;51.908;8.364;2024-03-02T04:28:11;8.70;68.70
66140;DHT22;52945;51.908;8.364;2024-03-02T04:31:12;8.70;68.90
66140;DHT22;52945;51.908;8.364;2024-03-02T04:34:13;8.70;69.10
66140;DHT22;52945;51.908;8.364;2024-03-02T04:37:14;8.70;69.10
66140;DHT22;52945;51.908;8.364;2024-03-02T04:40:15;8.70;69.00
66140;DHT22;52945;51.908;8.364;2024-03-02T04:43:15;8.70;69.10
66140;DHT22;52945;51.908;8.364;2024-03-02T04:46:16;8.70;68.90
66140;DHT22;52945;51.908;8.364;2024-03-02T04:49:17;8.70;68.80
66140;DHT22;52945;51.908;8.364;2024-03-02T04:52:18;8.70;69.10
66140;DHT22;52945;51.908;8.364;2024-03-02T04:55:19;8.60;69.40
66140;DHT22;52945;51.908;8.364;2024-03-02T04:58:19;8.60;69.80
66140;DHT22;52945;51.908;8.364;2024-03-02T05:01:20;8.60;69.90
66140;DHT22;52945;51.908;8.364;2024-03-02T05:04:20;8.60;70.00
66140;DHT22;52945;51.908;8.364;2024-03-02T05:07:21;8.60;69.90
66140;DHT22;52945;51.908;8.364;2024-03-02T05:10:22;8.70;69.80
66140;DHT22;52945;51.908;8.364;2024-03-02T05:13:22;8.60;69.70
66140;DHT22;52945;51.908;8.364;2024-03-02T05:16:23;8.60;69.60
66140;DHT22;52945;51.908;8.364;2024-03-02T05:19:23;8.70;69.60
66140;DHT22;52945;51.908;8.364;2024-03-02T05:22:25;8.70;69.60
66140;DHT22;52945;51.908;8.364;2024-03-02T05:25:26;8.70;69.70
66140;DHT22;52945;51.908;8.364;2024-03-02T05:28:26;8.60;69.70
66140;DHT22;52945;51.908;8.364;2024-03-02T05:31:27;8.70;69.70
66140;DHT22;52945;51.908;8.364;2024-03-02T05:34:27;8.70;69.80
66140;DHT22;52945;51.908;8.364;2024-03-02T05:37:28;8.70;69.70
66140;DHT22;52945;51.908;8.364;2024-03-02T05:40:29;8.60;69.70
66140;DHT22;52945;51.908;8.364;2024-03-02T05:43:29;8.60;70.00
66140;DHT22;52945;51.908;8.364;2024-03-02T05:46:30;8.60;70.20
66140;DHT22;52945;51.908;8.364;2024-03-02T05:49:30;8.60;70.40
66140;DHT22;52945;51.908;8.364;2024-03-02T05:52:31;8.60;70.30
66140;DHT22;52945;51.908;8.364;2024-03-02T05:55:31;8.60;70.30
66140;DHT22;52945;51.908;8.364;2024-03-02T05:58:32;8.60;70.20
66140;DHT22;52945;51.908;8.364;2024-03-02T06:01:51;8.60;70.20
66140;DHT22;52945;51.908;8.364;2024-03-02T06:04:55;8.60;70.20
66140;DHT22;52945;51.908;8.364;2024-03-02T06:07:56;8.60;70.40
66140;DHT22;52945;51.908;8.364;2024-03-02T06:10:56;8.50;70.70
66140;DHT22;52945;51.908;8.364;2024-03-02T06:13:57;8.50;70.50
66140;DHT22;52945;51.908;8.364;2024-03-02T06:16:58;8.50;70.60
66140;DHT22;52945;51.908;8.364;2024-03-02T06:19:59;8.60;70.30
66140;DHT22;52945;51.908;8.364;2024-03-02T06:23:00;8.60;70.20
66140;DHT22;52945;51.908;8.364;2024-03-02T06:26:01;8.60;70.30
66140;DHT22;52945;51.908;8.364;2024-03-02T06:29:02;8.60;70.40
66140;DHT22;52945;51.908;8.364;2024-03-02T06:32:03;8.50;70.80
66140;DHT22;52945;51.908;8.364;2024-03-02T06:35:04;8.50;71.00
66140;DHT22;52945;51.908;8.364;2024-03-02T06:38:06;8.50;70.70
66140;DHT22;52945;51.908;8.364;2024-03-02T06:41:06;8.60;70.60
66140;DHT22;52945;51.908;8.364;2024-03-02T06:44:07;8.60;70.40
66140;DHT22;52945;51.908;8.364;2024-03-02T06:47:07;8.60;70.40
66140;DHT22;52945;51.908;8.364;2024-03-02T06:50:09;8.50;70.40
66140;DHT22;52945;51.908;8.364;2024-03-02T06:53:09;8.60;70.40
66140;DHT22;52945;51.908;8.364;2024-03-02T06:56:10;8.60;70.40
66140;DHT22;52945;51.908;8.364;2024-03-02T06:59:11;8.60;70.60
66140;DHT22;52945;51.908;8.364;2024-03-02T07:02:12;8.60;70.40
66140;DHT22;52945;51.908;8.364;2024-03-02T07:05:12;8.60;70.30
66140;DHT22;52945;51.908;8.364;2024-03-02T07:08:13;8.60;70.40
66140;DHT22;52945;51.908;8.364;2024-03-02T07:11:14;8.60;70.30
66140;DHT22;52945;51.908;8.364;2024-03-02T07:14:14;8.60;70.40
66140;DHT22;52945;51.908;8.364;2024-03-02T07:17:15;8.70;70.10
66140;DHT22;52945;51.908;8.364;2024-03-02T07:20:15;8.70;70.10
66140;DHT22;52945;51.908;8.364;2024-03-02T07:23:16;8.60;70.30
66140;DHT22;52945;51.908;8.364;2024-03-02T07:26:17;8.60;70.10
66140;DHT22;52945;51.908;8.364;2024-03-02T07:29:20;8.70;70.10
66140;DHT22;52945;51.908;8.364;2024-03-02T07:32:21;8.60;70.20
66140;DHT22;52945;51.908;8.364;2024-03-02T07:35:21;8.70;70.20
66140;DHT22;52945;51.908;8.364;2024-03-02T07:38:27;8.70;70.50
66140;DHT22;52945;51.908;8.364;2024-03-02T07:41:29;8.70;70.40
66140;DHT22;52945;51.908;8.364;2024-03-02T07:44:29;8.70;70.70
66140;DHT22;52945;51.908;8.364;2024-03-02T07:47:34;8.70;70.70
66140;DHT22;52945;51.908;8.364;2024-03-02T07:50:35;8.80;70.50
66140;DHT22;52945;51.908;8.364;2024-03-02T07:53:35;8.80;70.40
66140;DHT22;52945;51.908;8.364;2024-03-02T07:56:36;8.90;70.20
66140;DHT22;52945;51.908;8.364;2024-03-02T07:59:37;9.00;70.20
66140;DHT22;52945;51.908;8.364;2024-03-02T08:02:39;9.10;70.00
66140;DHT22;52945;51.908;8.364;2024-03-02T08:05:40;9.10;69.90
66140;DHT22;52945;51.908;8.364;2024-03-02T08:08:41;9.10;69.60
66140;DHT22;52945;51.908;8.364;2024-03-02T08:11:41;9.10;69.60
66140;DHT22;52945;51.908;8.364;2024-03-02T08:14:42;9.20;69.50
66140;DHT22;52945;51.908;8.364;2024-03-02T08:17:43;9.40;69.30
66140;DHT22;52945;51.908;8.364;2024-03-02T08:20:48;9.40;68.90
66140;DHT22;52945;51.908;8.364;2024-03-02T08:23:49;9.60;68.60
66140;DHT22;52945;51.908;8.364;2024-03-02T08:26:51;9.70;68.20
66140;DHT22;52945;51.908;8.364;2024-03-02T08:29:51;10.00;67.40
66140;DHT22;52945;51.908;8.364;2024-03-02T08:32:52;10.40;66.60
66140;DHT22;52945;51.908;8.364;2024-03-02T08:35:52;10.80;64.80
66140;DHT22;52945;51.908;8.364;2024-03-02T08:38:53;11.30;64.00
66140;DHT22;52945;51.908;8.364;2024-03-02T08:41:54;11.70;62.70
66140;DHT22;52945;51.908;8.364;2024-03-02T08:44:55;12.10;61.20
66140;DHT22;52945;51.908;8.364;2024-03-02T08:47:55;12.30;60.90
66140;DHT22;52945;51.908;8.364;2024-03-02T08:50:56;12.90;59.10
66140;DHT22;52945;51.908;8.364;2024-03-02T08:53:57;13.20;58.00
66140;DHT22;52945;51.908;8.364;2024-03-02T08:56:58;13.50;57.50
66140;DHT22;52945;51.908;8.364;2024-03-02T08:59:59;13.80;55.70
66140;DHT22;52945;51.908;8.364;2024-03-02T09:03:00;14.30;54.40
66140;DHT22;52945;51.908;8.364;2024-03-02T09:06:00;14.70;53.20
66140;DHT22;52945;51.908;8.364;2024-03-02T09:09:01;14.80;52.20
66140;DHT22;52945;51.908;8.364;2024-03-02T09:12:02;15.20;51.10
66140;DHT22;52945;51.908;8.364;2024-03-02T09:15:06;15.50;50.90
66140;DHT22;52945;51.908;8.364;2024-03-02T09:18:06;15.60;49.60
66140;DHT22;52945;51.908;8.364;2024-03-02T09:21:07;15.70;49.30
66140;DHT22;52945;51.908;8.364;2024-03-02T09:24:07;15.90;49.70
66140;DHT22;52945;51.908;8.364;2024-03-02T09:27:08;16.20;47.90
66140;DHT22;52945;51.908;8.364;2024-03-02T09:30:09;16.20;46.20
66140;DHT22;52945;51.908;8.364;2024-03-02T09:33:14;16.50;46.50
66140;DHT22;52945;51.908;8.364;2024-03-02T09:36:22;16.70;45.00
66140;DHT22;52945;51.908;8.364;2024-03-02T09:39:23;16.90;44.90
66140;DHT22;52945;51.908;8.364;2024-03-02T09:42:24;17.10;45.40
66140;DHT22;52945;51.908;8.364;2024-03-02T09:45:25;17.30;44.20
66140;DHT22;52945;51.908;8.364;2024-03-02T09:48:25;17.60;43.80
66140;DHT22;52945;51.908;8.364;2024-03-02T09:51:27;17.70;43.90
66140;DHT22;52945;51.908;8.364;2024-03-02T09:54:28;17.80;42.70
66140;DHT22;52945;51.908;8.364;2024-03-02T09:57:29;17.90;43.00
66140;DHT22;52945;51.908;8.364;2024-03-02T10:00:29;18.00;42.70
66140;DHT22;52945;51.908;8.364;2024-03-02T10:03:30;18.20;42.10
66140;DHT22;52945;51.908;8.364;2024-03-02T10:06:32;18.40;42.00
66140;DHT22;52945;51.908;8.364;2024-03-02T10:09:33;18.60;41.80
66140;DHT22;52945;51.908;8.364;2024-03-02T10:12:33;18.70;41.40
66140;DHT22;52945;51.908;8.364;2024-03-02T10:15:34;18.80;41.40
66140;DHT22;52945;51.908;8.364;2024-03-02T10:18:35;18.80;40.70
66140;DHT22;52945;51.908;8.364;2024-03-02T10:21:35;18.80;41.50
66140;DHT22;52945;51.908;8.364;2024-03-02T10:24:44;18.80;41.60
66140;DHT22;52945;51.908;8.364;2024-03-02T10:27:50;18.70;41.30
66140;DHT22;52945;51.908;8.364;2024-03-02T10:30:51;18.60;42.10
66140;DHT22;52945;51.908;8.364;2024-03-02T10:33:57;18.60;42.00
66140;DHT22;52945;51.908;8.364;2024-03-02T10:36:58;18.40;41.70
66140;DHT22;52945;51.908;8.364;2024-03-02T10:40:05;18.40;42.80
66140;DHT22;52945;51.908;8.364;2024-03-02T10:43:06;18.30;42.90
66140;DHT22;52945;51.908;8.364;2024-03-02T10:46:08;18.20;43.40
66140;DHT22;52945;51.908;8.364;2024-03-02T10:49:08;18.30;43.60
66140;DHT22;52945;51.908;8.364;2024-03-02T10:52:09;18.40;43.50
66140;DHT22;52945;51.908;8.364;2024-03-02T10:55:10;18.50;41.70
66140;DHT22;52945;51.908;8.364;2024-03-02T10:58:12;18.70;41.90
66140;DHT22;52945;51.908;8.364;2024-03-02T11:01:13;18.70;41.90
66140;DHT22;52945;51.908;8.364;2024-03-02T11:04:17;18.80;42.10
66140;DHT22;52945;51.908;8.364;2024-03-02T11:07:20;18.90;42.50
66140;DHT22;52945;51.908;8.364;2024-03-02T11:10:21;18.90;41.80
66140;DHT22;52945;51.908;8.364;2024-03-02T11:13:27;19.00;42.20
66140;DHT22;52945;51.908;8.364;2024-03-02T11:16:31;19.00;41.80
66140;DHT22;52945;51.908;8.364;2024-03-02T11:19:37;19.00;41.90
66140;DHT22;52945;51.908;8.364;2024-03-02T11:22:38;19.10;41.70
66140;DHT22;52945;51.908;8.364;2024-03-02T11:25:39;19.20;41.50
66140;DHT22;52945;51.908;8.364;2024-03-02T11:28:40;19.20;41.50
66140;DHT22;52945;51.908;8.364;2024-03-02T11:31:59;19.40;41.60
66140;DHT22;52945;51.908;8.364;2024-03-02T11:35:03;19.60;41.40
66140;DHT22;52945;51.908;8.364;2024-03-02T11:38:03;19.70;41.70
66140;DHT22;52945;51.908;8.364;2024-03-02T11:41:07;19.70;42.00
66140;DHT22;52945;51.908;8.364;2024-03-02T11:44:09;19.90;41.50
66140;DHT22;52945;51.908;8.364;2024-03-02T11:47:14;20.00;40.10
66140;DHT22;52945;51.908;8.364;2024-03-02T11:50:15;20.00;39.90
66140;DHT22;52945;51.908;8.364;2024-03-02T11:53:16;20.10;39.80
66140;DHT22;52945;51.908;8.364;2024-03-02T11:56:18;20.10;39.90
66140;DHT22;52945;51.908;8.364;2024-03-02T11:59:20;20.00;40.30
66140;DHT22;52945;51.908;8.364;2024-03-02T12:02:21;20.10;40.80
66140;DHT22;52945;51.908;8.364;2024-03-02T12:05:22;20.10;39.20
66140;DHT22;52945;51.908;8.364;2024-03-02T12:08:24;20.20;39.40
66140;DHT22;52945;51.908;8.364;2024-03-02T12:11:25;20.20;39.50
66140;DHT22;52945;51.908;8.364;2024-03-02T12:14:25;20.30;38.10
66140;DHT22;52945;51.908;8.364;2024-03-02T12:17:29;20.30;37.40
66140;DHT22;52945;51.908;8.364;2024-03-02T12:20:30;20.40;37.20
66140;DHT22;52945;51.908;8.364;2024-03-02T12:23:31;20.40;37.00
66140;DHT22;52945;51.908;8.364;2024-03-02T12:26:31;20.30;37.40
66140;DHT22;52945;51.908;8.364;2024-03-02T12:29:32;20.30;36.60
66140;DHT22;52945;51.908;8.364;2024-03-02T12:32:34;20.20;36.40
66140;DHT22;52945;51.908;8.364;2024-03-02T12:35:35;20.20;36.60
66140;DHT22;52945;51.908;8.364;2024-03-02T12:38:36;20.20;36.50
66140;DHT22;52945;51.908;8.364;2024-03-02T12:41:38;20.30;37.30
66140;DHT22;52945;51.908;8.364;2024-03-02T12:44:39;20.40;36.60
66140;DHT22;52945;51.908;8.364;2024-03-02T12:47:41;20.10;37.50
66140;DHT22;52945;51.908;8.364;2024-03-02T12:50:42;20.10;38.40
66140;DHT22;52945;51.908;8.364;2024-03-02T12:53:44;20.10;38.60
66140;DHT22;52945;51.908;8.364;2024-03-02T12:56:44;19.80;39.10
66140;DHT22;52945;51.908;8.364;2024-03-02T12:59:47;19.80;39.50
66140;DHT22;52945;51.908;8.364;2024-03-02T13:02:48;19.90;39.40
66140;DHT22;52945;51.908;8.364;2024-03-02T13:05:51;19.70;39.50
66140;DHT22;52945;51.908;8.364;2024-03-02T13:08:54;19.60;39.80
66140;DHT22;52945;51.908;8.364;2024-03-02T13:11:56;19.30;40.00
66140;DHT22;52945;51.908;8.364;2024-03-02T13:14:58;19.10;40.70
66140;DHT22;52945;51.908;8.364;2024-03-02T13:18:00;18.90;40.70
66140;DHT22;52945;51.908;8.364;2024-03-02T13:21:04;18.70;41.60
66140;DHT22;52945;51.908;8.364;2024-03-02T13:24:05;18.50;42.10
66140;DHT22;52945;51.908;8.364;2024-03-02T13:27:06;18.50;42.10
66140;DHT22;52945;51.908;8.364;2024-03-02T13:30:08;18.40;42.20
66140;DHT22;52945;51.908;8.364;2024-03-02T13:33:09;18.20;42.80
66140;DHT22;52945;51.908;8.364;2024-03-02T13:36:09;18.20;43.50
66140;DHT22;52945;51.908;8.364;2024-03-02T13:39:10;18.00;43.40
66140;DHT22;52945;51.908;8.364;2024-03-02T13:42:11;18.00;43.80
66140;DHT22;52945;51.908;8.364;2024-03-02T13:45:14;18.00;44.60
66140;DHT22;52945;51.908;8.364;2024-03-02T13:48:16;17.90;44.00
66140;DHT22;52945;51.908;8.364;2024-03-02T13:51:16;17.90;44.30
66140;DHT22;52945;51.908;8.364;2024-03-02T13:54:17;18.00;44.90
66140;DHT22;52945;51.908;8.364;2024-03-02T13:57:18;18.10;45.60
66140;DHT22;52945;51.908;8.364;2024-03-02T14:00:20;18.20;45.00
66140;DHT22;52945;51.908;8.364;2024-03-02T14:03:21;18.10;44.30
66140;DHT22;52945;51.908;8.364;2024-03-02T14:06:21;18.10;43.90
66140;DHT22;52945;51.908;8.364;2024-03-02T14:09:22;17.90;44.20
66140;DHT22;52945;51.908;8.364;2024-03-02T14:12:23;18.00;44.20
66140;DHT22;52945;51.908;8.364;2024-03-02T14:15:24;18.00;44.50
66140;DHT22;52945;51.908;8.364;2024-03-02T14:18:25;17.80;44.00
66140;DHT22;52945;51.908;8.364;2024-03-02T14:21:25;17.90;44.10
66140;DHT22;52945;51.908;8.364;2024-03-02T14:24:26;17.90;44.70
66140;DHT22;52945;51.908;8.364;2024-03-02T14:27:28;17.80;44.70
66140;DHT22;52945;51.908;8.364;2024-03-02T14:30:29;17.70;44.50
66140;DHT22;52945;51.908;8.364;2024-03-02T14:33:29;17.70;44.80
66140;DHT22;52945;51.908;8.364;2024-03-02T14:36:30;17.60;45.10
66140;DHT22;52945;51.908;8.364;2024-03-02T14:39:31;17.50;45.50
66140;DHT22;52945;51.908;8.364;2024-03-02T14:42:35;17.60;45.70
66140;DHT22;52945;51.908;8.364;2024-03-02T14:45:36;17.50;45.30
66140;DHT22;52945;51.908;8.364;2024-03-02T14:48:38;17.40;45.20
66140;DHT22;52945;51.908;8.364;2024-03-02T14:51:38;17.40;45.60
66140;DHT22;52945;51.908;8.364;2024-03-02T14:54:39;17.30;45.70
66140;DHT22;52945;51.908;8.364;2024-03-02T14:57:39;17.30;46.10
66140;DHT22;52945;51.908;8.364;2024-03-02T15:00:40;17.30;45.90
66140;DHT22;52945;51.908;8.364;2024-03-02T15:03:41;17.30;45.70
66140;DHT22;52945;51.908;8.364;2024-03-02T15:06:42;17.20;45.50
66140;DHT22;52945;51.908;8.364;2024-03-02T15:09:42;17.10;45.50
66140;DHT22;52945;51.908;8.364;2024-03-02T15:12:43;16.90;45.60
66140;DHT22;52945;51.908;8.364;2024-03-02T15:15:44;16.90;45.60
66140;DHT22;52945;51.908;8.364;2024-03-02T15:18:45;16.90;45.40
66140;DHT22;52945;51.908;8.364;2024-03-02T15:21:46;16.70;45.40
66140;DHT22;52945;51.908;8.364;2024-03-02T15:24:46;16.60;45.60
66140;DHT22;52945;51.908;8.364;2024-03-02T15:27:47;16.60;45.90
66140;DHT22;52945;51.908;8.364;2024-03-02T15:30:48;16.60;46.00
66140;DHT22;52945;51.908;8.364;2024-03-02T15:33:48;16.50;46.30
66140;DHT22;52945;51.908;8.364;2024-03-02T15:36:50;16.60;46.20
66140;DHT22;52945;51.908;8.364;2024-03-02T15:39:51;16.60;46.40
66140;DHT22;52945;51.908;8.364;2024-03-02T15:42:51;16.50;46.10
66140;DHT22;52945;51.908;8.364;2024-03-02T15:45:52;16.50;46.10
66140;DHT22;52945;51.908;8.364;2024-03-02T15:48:52;16.50;46.10
66140;DHT22;52945;51.908;8.364;2024-03-02T15:51:53;16.50;46.00
66140;DHT22;52945;51.908;8.364;2024-03-02T15:54:54;16.30;45.30
66140;DHT22;52945;51.908;8.364;2024-03-02T15:57:55;16.20;45.30
66140;DHT22;52945;51.908;8.364;2024-03-02T16:00:55;16.20;45.50
66140;DHT22;52945;51.908;8.364;2024-03-02T16:03:56;16.20;45.60
66140;DHT22;52945;51.908;8.364;2024-03-02T16:06:57;16.20;45.40
66140;DHT22;52945;51.908;8.364;2024-03-02T16:09:58;16.10;45.50
66140;DHT22;52945;51.908;8.364;2024-03-02T16:12:58;16.10;45.60
66140;DHT22;52945;51.908;8.364;2024-03-02T16:16:00;16.10;45.70
66140;DHT22;52945;51.908;8.364;2024-03-02T16:19:01;16.10;45.80
66140;DHT22;52945;51.908;8.364;2024-03-02T16:22:03;16.10;45.80
66140;DHT22;52945;51.908;8.364;2024-03-02T16:25:07;16.00;46.20
66140;DHT22;52945;51.908;8.364;2024-03-02T16:28:07;16.00;46.20
66140;DHT22;52945;51.908;8.364;2024-03-02T16:31:08;15.90;46.40
66140;DHT22;52945;51.908;8.364;2024-03-02T16:34:10;15.90;46.50
66140;DHT22;52945;51.908;8.364;2024-03-02T16:37:11;15.80;46.70
66140;DHT22;52945;51.908;8.364;2024-03-02T16:40:12;15.80;46.70
66140;DHT22;52945;51.908;8.364;2024-03-02T16:43:13;15.80;47.10
66140;DHT22;52945;51.908;8.364;2024-03-02T16:46:14;15.80;47.20
66140;DHT22;52945;51.908;8.364;2024-03-02T16:49:15;15.80;47.40
66140;DHT22;52945;51.908;8.364;2024-03-02T16:52:15;15.70;47.30
66140;DHT22;52945;51.908;8.364;2024-03-02T16:55:17;15.70;47.60
66140;DHT22;52945;51.908;8.364;2024-03-02T16:58:19;15.60;47.60
66140;DHT22;52945;51.908;8.364;2024-03-02T17:01:19;15.60;48.00
66140;DHT22;52945;51.908;8.364;2024-03-02T17:04:20;15.50;48.10
66140;DHT22;52945;51.908;8.364;2024-03-02T17:07:20;15.50;48.30
66140;DHT22;52945;51.908;8.364;2024-03-02T17:10:21;15.40;48.40
66140;DHT22;52945;51.908;8.364;2024-03-02T17:13:22;15.40;48.30
66140;DHT22;52945;51.908;8.364;2024-03-02T17:16:26;15.20;48.30
66140;DHT22;52945;51.908;8.364;2024-03-02T17:19:26;15.10;48.50
66140;DHT22;52945;51.908;8.364;2024-03-02T17:22:27;15.10;48.70
66140;DHT22;52945;51.908;8.364;2024-03-02T17:25:27;15.10;48.60
66140;DHT22;52945;51.908;8.364;2024-03-02T17:28:28;15.10;48.50
66140;DHT22;52945;51.908;8.364;2024-03-02T17:31:29;15.00;48.40
66140;DHT22;52945;51.908;8.364;2024-03-02T17:34:30;15.00;48.60
66140;DHT22;52945;51.908;8.364;2024-03-02T17:37:31;15.00;48.70
66140;DHT22;52945;51.908;8.364;2024-03-02T17:40:32;15.00;48.60
66140;DHT22;52945;51.908;8.364;2024-03-02T17:43:33;14.90;48.70
66140;DHT22;52945;51.908;8.364;2024-03-02T17:46:33;14.90;48.80
66140;DHT22;52945;51.908;8.364;2024-03-02T17:49:34;14.90;48.80
66140;DHT22;52945;51.908;8.364;2024-03-02T17:52:34;14.90;49.40
66140;DHT22;52945;51.908;8.364;2024-03-02T17:55:35;14.90;49.80
66140;DHT22;52945;51.908;8.364;2024-03-02T17:58:39;14.90;50.40
66140;DHT22;52945;51.908;8.364;2024-03-02T18:01:40;14.90;49.90
66140;DHT22;52945;51.908;8.364;2024-03-02T18:04:41;14.80;50.00
66140;DHT22;52945;51.908;8.364;2024-03-02T18:07:42;14.80;50.40
66140;DHT22;52945;51.908;8.364;2024-03-02T18:10:43;14.70;49.80
66140;DHT22;52945;51.908;8.364;2024-03-02T18:13:43;14.70;50.30
66140;DHT22;52945;51.908;8.364;2024-03-02T18:16:44;14.70;49.70
66140;DHT22;52945;51.908;8.364;2024-03-02T18:19:45;14.60;49.20
66140;DHT22;52945;51.908;8.364;2024-03-02T18:22:45;14.50;49.10
66140;DHT22;52945;51.908;8.364;2024-03-02T18:25:46;14.50;49.90
66140;DHT22;52945;51.908;8.364;2024-03-02T18:28:47;14.60;49.60
66140;DHT22;52945;51.908;8.364;2024-03-02T18:31:48;14.50;50.10
66140;DHT22;52945;51.908;8.364;2024-03-02T18:34:48;14.60;50.90
66140;DHT22;52945;51.908;8.364;2024-03-02T18:37:49;14.50;50.60
66140;DHT22;52945;51.908;8.364;2024-03-02T18:40:49;14.50;50.70
66140;DHT22;52945;51.908;8.364;2024-03-02T18:43:50;14.50;50.50
66140;DHT22;52945;51.908;8.364;2024-03-02T18:46:51;14.40;50.60
66140;DHT22;52945;51.908;8.364;2024-03-02T18:49:51;14.40;50.70
66140;DHT22;52945;51.908;8.364;2024-03-02T18:52:55;14.30;51.00
66140;DHT22;52945;51.908;8.364;2024-03-02T18:55:56;14.30;50.80
66140;DHT22;52945;51.908;8.364;2024-03-02T18:58:57;14.20;50.30
66140;DHT22;52945;51.908;8.364;2024-03-02T19:01:57;14.20;50.00
66140;DHT22;52945;51.908;8.364;2024-03-02T19:04:58;14.10;50.10
66140;DHT22;52945;51.908;8.364;2024-03-02T19:07:58;14.10;50.20
66140;DHT22;52945;51.908;8.364;2024-03-02T19:10:59;14.10;50.30
66140;DHT22;52945;51.908;8.364;2024-03-02T19:14:02;14.10;51.30